Time;durP1;ratioP1;P1;durP2;ratioP2;P2;SDS_P1;SDS_P2;PMS_P1;PMS_P2;Temp;Humidity;BMP_temperature;BMP_pressure;BME280_temperature;BME280_humidity;BME280_pressure;Samples;Min_cycle;Max_cycle;Signal;HPM_P1;HPM_P2
2024/01/22 00:03:18;;;;;;;26.60;11.30;;;;;;;1.21;79.77;101087.10;220683;1264;139687;-91
2024/01/22 00:08:20;;;;;;;23.30;10.40;;;;;;;1.20;79.91;101079.77;221318;1264;95575;-88
2024/01/22 00:13:20;;;;;;;26.00;10.80;;;;;;;1.20;79.76;101085.77;220709;1264;139085;-87
2024/01/22 00:18:20;;;;;;;25.50;11.00;;;;;;;1.18;80.10;101086.51;221307;1264;138478;-88
2024/01/22 00:23:21;;;;;;;24.80;9.90;;;;;;;1.17;80.02;101075.41;220875;1264;139133;-88
2024/01/22 00:28:21;;;;;;;24.50;11.00;;;;;;;1.17;80.30;101071.30;221319;1264;138017;-89
2024/01/22 00:33:23;;;;;;;22.30;10.20;;;;;;;1.18;80.26;101062.82;220984;1264;139479;-94
2024/01/22 00:38:25;;;;;;;28.80;10.50;;;;;;;1.19;80.28;101060.10;221251;1264;108448;-89
2024/01/22 00:43:26;;;;;;;23.80;9.90;;;;;;;1.20;80.26;101060.52;220722;1264;139369;-90
2024/01/22 00:48:26;;;;;;;25.90;10.00;;;;;;;1.21;80.66;101058.10;221382;1264;137676;-88
2024/01/22 00:53:27;;;;;;;20.90;10.00;;;;;;;1.23;80.90;101057.52;221321;1263;138919;-89
2024/01/22 00:58:27;;;;;;;23.00;10.80;;;;;;;1.25;80.56;101053.30;221402;1263;139065;-92
2024/01/22 01:03:28;;;;;;;25.50;11.10;;;;;;;1.27;80.35;101045.08;221010;1264;139287;-88
2024/01/22 01:08:30;;;;;;;23.40;9.90;;;;;;;1.30;80.49;101041.55;222339;1264;95814;-89
2024/01/22 01:13:30;;;;;;;21.70;9.30;;;;;;;1.34;80.53;101021.45;220693;1264;138368;-91
2024/01/22 01:18:31;;;;;;;28.70;10.70;;;;;;;1.38;80.49;101006.30;221568;1264;137867;-93
2024/01/22 01:23:33;;;;;;;23.70;9.30;;;;;;;1.41;80.98;100994.52;220644;1265;139101;-93
2024/01/22 01:28:34;;;;;;;21.70;9.80;;;;;;;1.46;81.23;100987.38;221522;1267;138221;-91
2024/01/22 01:33:35;;;;;;;19.90;9.20;;;;;;;1.47;81.60;100979.05;221084;1265;138752;-89
2024/01/22 01:38:36;;;;;;;21.90;8.80;;;;;;;1.48;81.55;100970.63;221325;1264;107673;-90
2024/01/22 01:43:36;;;;;;;21.40;9.90;;;;;;;1.49;81.77;100958.77;220578;1264;139035;-89
2024/01/22 01:48:39;;;;;;;23.60;9.20;;;;;;;1.50;81.95;100943.50;221473;1264;137904;-91
2024/01/22 01:53:39;;;;;;;20.40;7.90;;;;;;;1.52;82.09;100937.56;220849;1265;139073;-89
2024/01/22 01:58:43;;;;;;;20.20;8.20;;;;;;;1.54;82.39;100927.96;221312;1264;139229;-90
2024/01/22 02:03:45;;;;;;;17.10;8.10;;;;;;;1.59;82.41;100928.87;220847;1264;139569;-91
2024/01/22 02:08:55;;;;;;;18.00;7.90;;;;;;;1.65;82.67;100911.72;221303;1264;95206;-90
2024/01/22 02:14:13;;;;;;;20.20;7.90;;;;;;;1.66;82.79;100905.92;220986;1265;138592;-92
2024/01/22 02:19:14;;;;;;;21.40;8.90;;;;;;;1.71;83.15;100898.71;221362;1264;137884;-90
2024/01/22 02:24:14;;;;;;;20.20;8.00;;;;;;;1.73;83.63;100877.38;220779;1264;138179;-88
2024/01/22 02:29:15;;;;;;;20.10;9.00;;;;;;;1.73;84.11;100855.95;221157;1265;137921;-91
2024/01/22 02:34:16;;;;;;;21.10;8.30;;;;;;;1.73;83.89;100852.14;220765;1264;139000;-89
2024/01/22 02:39:16;;;;;;;17.80;7.90;;;;;;;1.72;84.43;100855.00;221165;1264;138836;-92
2024/01/22 02:44:17;;;;;;;18.50;7.70;;;;;;;1.69;84.72;100849.27;220832;1264;140250;-88
2024/01/22 02:49:18;;;;;;;20.60;8.10;;;;;;;1.68;84.96;100843.98;221513;1264;137898;-88
2024/01/22 02:54:18;;;;;;;17.70;7.70;;;;;;;1.65;85.34;100828.41;220752;1264;139005;-92
2024/01/22 02:59:19;;;;;;;18.50;7.20;;;;;;;1.62;85.37;100818.71;220993;1265;137993;-90
2024/01/22 03:04:19;;;;;;;19.30;7.90;;;;;;;1.60;85.68;100807.21;220767;1265;138761;-90
2024/01/22 03:09:19;;;;;;;15.10;7.30;;;;;;;1.58;85.90;100800.33;221443;1264;139359;-89
2024/01/22 03:14:20;;;;;;;18.80;7.80;;;;;;;1.58;86.34;100794.13;220780;1264;138852;-90
2024/01/22 03:19:20;;;;;;;18.50;8.00;;;;;;;1.58;86.80;100788.84;221388;1264;138034;-88
2024/01/22 03:24:22;;;;;;;18.20;7.80;;;;;;;1.57;86.65;100778.48;220658;1264;139301;-92
2024/01/22 03:29:22;;;;;;;15.40;7.80;;;;;;;1.58;86.87;100761.87;221399;1264;138024;-91
2024/01/22 03:34:23;;;;;;;15.80;7.30;;;;;;;1.60;86.94;100740.33;220508;1264;139355;-90
2024/01/22 03:39:23;;;;;;;17.20;7.00;;;;;;;1.61;87.22;100738.34;221204;1264;138575;-91
2024/01/22 03:44:44;;;;;;;16.90;6.90;;;;;;;1.65;87.31;100728.87;220693;1264;138715;-93
2024/01/22 03:49:45;;;;;;;16.40;7.00;;;;;;;1.71;87.24;100734.29;221134;1266;137967;-91
2024/01/22 03:54:45;;;;;;;15.80;7.30;;;;;;;1.76;86.99;100728.23;220812;1265;138727;-92
2024/01/22 03:59:46;;;;;;;13.90;6.80;;;;;;;1.79;87.33;100716.83;221357;1264;138213;-92
2024/01/22 04:04:47;;;;;;;14.80;5.80;;;;;;;1.82;87.59;100709.09;220450;1265;138921;-90
2024/01/22 04:09:47;;;;;;;16.40;6.60;;;;;;;1.84;88.05;100705.39;221193;1267;138691;-87
2024/01/22 04:14:48;;;;;;;14.90;6.20;;;;;;;1.86;87.98;100699.49;221025;1263;138805;-90
2024/01/22 04:19:48;;;;;;;13.50;6.30;;;;;;;1.87;88.31;100696.23;221104;1264;137788;-88
2024/01/22 04:24:48;;;;;;;13.60;6.30;;;;;;;1.87;88.48;100690.11;220906;1263;138794;-88
2024/01/22 04:29:49;;;;;;;13.20;5.90;;;;;;;1.89;88.67;100688.23;221390;1265;138272;-89
2024/01/22 04:34:50;;;;;;;12.30;5.70;;;;;;;1.91;88.84;100675.80;221049;1265;138788;-91
2024/01/22 04:39:50;;;;;;;13.20;5.80;;;;;;;1.95;88.67;100672.96;220797;1266;139489;-88
2024/01/22 04:44:51;;;;;;;16.90;6.30;;;;;;;1.99;88.55;100665.03;221219;1264;138848;-87
2024/01/22 04:49:51;;;;;;;14.40;6.10;;;;;;;2.07;88.73;100645.96;220973;1264;138879;-89
2024/01/22 04:54:51;;;;;;;13.20;6.70;;;;;;;2.14;88.68;100640.39;221381;1264;139880;-90
2024/01/22 04:59:52;;;;;;;17.90;5.80;;;;;;;2.25;88.08;100631.16;221105;1267;139392;-88
2024/01/22 05:04:56;;;;;;;13.30;5.70;;;;;;;2.32;88.53;100625.98;221123;1264;150749;-89
2024/01/22 05:10:00;;;;;;;13.60;5.50;;;;;;;2.37;88.16;100623.84;220686;1264;139428;-89
2024/01/22 05:15:01;;;;;;;11.60;5.10;;;;;;;2.45;88.02;100630.05;221495;1264;137921;-93
2024/01/22 05:20:01;;;;;;;15.40;6.40;;;;;;;2.54;87.54;100626.91;220888;1263;140332;-87
2024/01/22 05:25:03;;;;;;;15.00;6.20;;;;;;;2.60;87.76;100628.06;221358;1264;137898;-92
2024/01/22 05:30:08;;;;;;;15.10;5.50;;;;;;;2.68;87.56;100627.77;221286;1264;139405;-92
2024/01/22 05:35:08;;;;;;;13.90;5.00;;;;;;;2.78;86.86;100608.97;221740;1266;138283;-88
2024/01/22 05:40:13;;;;;;;19.80;5.80;;;;;;;2.86;86.42;100596.45;221028;1266;140021;-87
2024/01/22 05:45:14;;;;;;;13.00;5.30;;;;;;;2.93;86.43;100597.64;221439;1264;138972;-88
2024/01/22 05:50:14;;;;;;;14.70;5.50;;;;;;;3.01;85.97;100591.36;221071;1267;162287;-88
2024/01/22 05:55:14;;;;;;;11.00;4.70;;;;;;;3.04;85.75;100587.00;221771;1267;138777;-93
2024/01/22 06:00:18;;;;;;;12.60;5.20;;;;;;;3.09;85.38;100571.15;221196;1266;139103;-89
2024/01/22 06:05:21;;;;;;;16.90;5.70;;;;;;;3.13;85.14;100563.79;221490;1264;138876;-92
2024/01/22 06:10:22;;;;;;;14.90;6.00;;;;;;;3.16;84.94;100542.24;221075;1266;138975;-90
2024/01/22 06:15:23;;;;;;;10.60;5.00;;;;;;;3.20;84.96;100526.08;221588;1264;137961;-91
2024/01/22 06:20:24;;;;;;;11.30;4.60;;;;;;;3.18;84.97;100507.34;220929;1264;139396;-92
2024/01/22 06:25:24;;;;;;;12.70;5.40;;;;;;;3.17;85.38;100516.08;221319;1265;139061;-89
2024/01/22 06:30:24;;;;;;;12.90;5.20;;;;;;;3.11;85.75;100507.13;220817;1264;139544;-90
2024/01/22 06:35:25;;;;;;;13.70;5.20;;;;;;;3.07;85.88;100506.58;221308;1266;139571;-90
2024/01/22 06:40:29;;;;;;;15.90;5.70;;;;;;;3.05;85.85;100492.19;220757;1264;139366;-88
2024/01/22 06:45:30;;;;;;;14.10;5.50;;;;;;;3.02;86.40;100468.15;221241;1267;138190;-93
2024/01/22 06:50:31;;;;;;;14.10;6.00;;;;;;;3.00;86.61;100455.77;220770;1266;139918;-90
2024/01/22 06:55:31;;;;;;;13.40;5.90;;;;;;;2.99;86.52;100441.55;221237;1265;139401;-89
2024/01/22 07:00:33;;;;;;;18.60;6.70;;;;;;;2.98;86.56;100435.20;220585;1266;139138;-90
2024/01/22 07:05:34;;;;;;;18.00;6.40;;;;;;;2.96;86.92;100412.27;221207;1264;138097;-93
2024/01/22 07:10:34;;;;;;;14.00;6.00;;;;;;;2.96;86.93;100402.58;220547;1266;139525;-90
2024/01/22 07:15:35;;;;;;;18.60;6.80;;;;;;;2.95;87.47;100383.97;221364;1263;138183;-90
2024/01/22 07:20:35;;;;;;;13.80;5.50;;;;;;;2.95;87.56;100373.20;220683;1266;139319;-90
2024/01/22 07:25:37;;;;;;;16.80;6.60;;;;;;;2.98;87.93;100365.23;221328;1266;138073;-91
2024/01/22 07:30:37;;;;;;;15.20;6.10;;;;;;;3.01;88.29;100349.05;220894;1264;138969;-88
2024/01/22 07:35:37;;;;;;;14.60;5.80;;;;;;;3.11;88.54;100334.38;221147;1264;139256;-90
2024/01/22 07:40:38;;;;;;;15.50;6.10;;;;;;;3.20;88.44;100325.23;220468;1264;139217;-90
2024/01/22 07:45:39;;;;;;;15.40;5.40;;;;;;;3.28;88.66;100315.98;220962;1267;138290;-86
2024/01/22 07:50:39;;;;;;;14.40;6.20;;;;;;;3.39;88.54;100301.79;220803;1266;138706;-89
2024/01/22 07:55:40;;;;;;;23.20;5.70;;;;;;;3.50;88.61;100301.09;222797;1265;138316;-88
2024/01/22 08:00:40;;;;;;;16.60;6.90;;;;;;;3.61;88.63;100305.70;221553;1267;138912;-88
2024/01/22 08:05:40;;;;;;;13.40;5.20;;;;;;;3.70;88.66;100284.27;220848;1265;138632;-90
2024/01/22 08:10:42;;;;;;;13.60;5.30;;;;;;;3.78;88.70;100274.14;220486;1265;139492;-87
2024/01/22 08:15:42;;;;;;;16.00;5.60;;;;;;;3.85;88.67;100257.36;221111;1267;138892;-90
2024/01/22 08:20:43;;;;;;;14.60;5.60;;;;;;;3.93;89.07;100242.79;220745;1264;139120;-88
2024/01/22 08:25:43;;;;;;;92.20;11.00;;;;;;;4.07;88.48;100242.42;221205;1266;138084;-91
2024/01/22 08:30:44;;;;;;;13.20;5.00;;;;;;;4.26;87.91;100266.01;220903;1266;140521;-92
2024/01/22 08:35:44;;;;;;;11.70;4.90;;;;;;;4.40;87.07;100270.75;221204;1264;138150;-90
2024/01/22 08:40:45;;;;;;;13.00;5.30;;;;;;;4.44;86.64;100286.09;220852;1265;139541;-90
2024/01/22 08:45:46;;;;;;;16.10;5.80;;;;;;;4.43;86.28;100290.48;221175;1267;139500;-91
2024/01/22 08:50:47;;;;;;;12.50;5.40;;;;;;;4.43;84.75;100291.33;221141;1267;139840;-94
2024/01/22 08:55:47;;;;;;;14.30;5.90;;;;;;;4.41;84.01;100282.00;221375;1266;138379;-92
2024/01/22 09:00:48;;;;;;;15.50;5.20;;;;;;;4.37;83.54;100262.41;220600;1264;138985;-90
2024/01/22 09:06:23;;;;;;;13.90;5.50;;;;;;;4.33;83.22;100260.95;221339;1266;138799;-89
2024/01/22 09:11:23;;;;;;;11.30;5.10;;;;;;;4.29;82.77;100256.61;220828;1263;227377;-93
2024/01/22 09:16:26;;;;;;;13.90;5.60;;;;;;;4.29;82.59;100250.46;221137;1264;138617;-94
2024/01/22 09:21:27;;;;;;;13.80;5.60;;;;;;;4.25;82.85;100244.58;221105;1266;139424;-94
2024/01/22 09:26:28;;;;;;;14.50;6.10;;;;;;;4.21;82.88;100233.09;221472;1264;96499;-91
2024/01/22 09:31:29;;;;;;;14.60;6.20;;;;;;;4.16;82.91;100219.77;220614;1266;139199;-89
2024/01/22 09:36:30;;;;;;;15.40;6.60;;;;;;;4.13;83.21;100206.29;221259;1267;137999;-90
2024/01/22 09:41:32;;;;;;;14.90;6.80;;;;;;;4.13;83.24;100205.52;220961;1263;138878;-90
2024/01/22 09:46:35;;;;;;;15.00;6.20;;;;;;;4.14;83.06;100206.88;221284;1265;138268;-92
2024/01/22 09:51:36;;;;;;;15.00;5.80;;;;;;;4.16;83.67;100201.88;220485;1264;139202;-93
2024/01/22 09:56:37;;;;;;;15.30;6.80;;;;;;;4.18;83.72;100201.45;221379;1264;96669;-92
2024/01/22 10:01:41;;;;;;;15.00;6.20;;;;;;;4.22;83.89;100194.36;220481;1265;138773;-91
2024/01/22 10:06:43;;;;;;;15.90;6.60;;;;;;;4.29;83.82;100193.27;221078;1264;138342;-91
2024/01/22 10:11:45;;;;;;;18.10;6.50;;;;;;;4.40;83.76;100185.61;220563;1266;139026;-91
2024/01/22 10:16:45;;;;;;;15.30;6.50;;;;;;;4.46;83.96;100180.20;221399;1264;138125;-94
2024/01/22 10:21:46;;;;;;;13.70;6.40;;;;;;;4.52;83.94;100167.39;221041;1267;140469;-89
2024/01/22 10:26:47;;;;;;;16.70;7.20;;;;;;;4.60;83.66;100163.20;221248;1268;105408;-90
2024/01/22 10:31:57;;;;;;;19.50;6.00;;;;;;;4.66;83.74;100153.31;220800;1268;139840;-88
2024/01/22 10:37:11;;;;;;;14.60;6.10;;;;;;;4.69;83.65;100149.52;221400;1266;138879;-89
2024/01/22 10:42:21;;;;;;;17.30;6.00;;;;;;;4.74;83.86;100139.46;220649;1268;138959;-91
2024/01/22 10:47:22;;;;;;;17.20;7.10;;;;;;;4.78;83.82;100146.52;221122;1268;138286;-86
2024/01/22 10:52:25;;;;;;;17.70;6.50;;;;;;;4.79;84.02;100133.84;220839;1265;139833;-89
2024/01/22 10:57:37;;;;;;;17.40;6.40;;;;;;;4.75;85.07;100134.98;221171;1263;138112;-91
2024/01/22 11:02:42;;;;;;;16.80;6.20;;;;;;;4.69;87.71;100130.13;220788;1266;139370;-89
2024/01/22 11:07:45;;;;;;;17.30;6.70;;;;;;;4.57;91.32;100128.52;221003;1264;138072;-87
2024/01/22 11:12:49;;;;;;;14.40;6.90;;;;;;;4.42;94.44;100128.61;220803;1267;139032;-88
2024/01/22 11:17:50;;;;;;;13.30;6.20;;;;;;;4.27;96.95;100123.33;220792;1267;138931;-89
2024/01/22 11:23:09;;;;;;;14.10;6.90;;;;;;;4.17;98.79;100110.02;220563;1264;139500;-87
2024/01/22 11:28:12;;;;;;;14.20;6.60;;;;;;;4.13;100.00;100103.42;220914;1268;138604;-90
2024/01/22 11:33:25;;;;;;;18.70;8.30;;;;;;;4.11;99.99;100084.63;220877;1267;139405;-91
2024/01/22 11:38:48;;;;;;;19.20;8.10;;;;;;;4.11;100.00;100080.41;221270;1264;96625;-89
2024/01/22 11:43:49;;;;;;;14.60;7.10;;;;;;;4.12;100.00;100072.96;220871;1266;138963;-91
2024/01/22 11:48:53;;;;;;;19.40;6.90;;;;;;;4.13;100.00;100069.81;222118;1265;138499;-87
2024/01/22 11:53:56;;;;;;;14.70;7.20;;;;;;;4.14;100.00;100060.27;221726;1266;138246;-88
2024/01/22 11:59:01;;;;;;;19.30;7.20;;;;;;;4.19;100.00;100048.45;221386;1267;138900;-89
2024/01/22 12:04:09;;;;;;;14.90;6.50;;;;;;;4.23;100.00;100043.95;220628;1267;139517;-87
2024/01/22 12:09:12;;;;;;;17.50;7.50;;;;;;;4.27;100.00;100037.57;221152;1268;138327;-92
2024/01/22 12:14:13;;;;;;;20.50;7.60;;;;;;;4.29;100.00;100043.54;221042;1267;139599;-88
2024/01/22 12:19:14;;;;;;;22.40;7.90;;;;;;;4.30;100.00;100043.64;221187;1268;138378;-88
2024/01/22 12:24:15;;;;;;;16.70;7.70;;;;;;;4.28;100.00;100037.48;220519;1267;139210;-89
2024/01/22 12:29:36;;;;;;;18.00;7.10;;;;;;;4.27;100.00;100023.23;221401;1268;137208;-88
2024/01/22 12:34:36;;;;;;;17.10;7.40;;;;;;;4.26;100.00;100018.55;220942;1268;139245;-91
2024/01/22 12:39:37;;;;;;;16.40;7.10;;;;;;;4.27;100.00;100006.71;221186;1267;139014;-92
2024/01/22 12:44:37;;;;;;;19.90;7.40;;;;;;;4.26;100.00;100002.98;220881;1268;139512;-93
2024/01/22 12:49:39;;;;;;;23.10;8.30;;;;;;;4.20;100.00;99990.91;221231;1268;138160;-87
2024/01/22 12:54:39;;;;;;;21.20;8.00;;;;;;;4.17;100.00;99980.74;221096;1267;138898;-92
2024/01/22 12:59:43;;;;;;;17.10;8.50;;;;;;;4.14;100.00;99964.86;221704;1264;138730;-92
2024/01/22 13:04:44;;;;;;;19.20;7.70;;;;;;;4.13;100.00;99956.20;220838;1264;138935;-94
2024/01/22 13:09:45;;;;;;;15.80;7.40;;;;;;;4.09;100.00;99953.84;221664;1264;139801;-91
2024/01/22 13:14:48;;;;;;;16.00;7.20;;;;;;;4.00;100.00;99934.36;220711;1268;138879;-91
2024/01/22 13:19:51;;;;;;;24.80;8.90;;;;;;;3.94;100.00;99929.73;221099;1268;138527;-89
2024/01/22 13:24:52;;;;;;;17.40;7.40;;;;;;;3.86;100.00;99918.79;220800;1268;139138;-87
2024/01/22 13:29:52;;;;;;;17.70;7.60;;;;;;;3.86;100.00;99928.84;221070;1267;139357;-89
2024/01/22 13:34:54;;;;;;;14.80;6.70;;;;;;;3.90;100.00;99920.70;221291;1264;138313;-91
2024/01/22 13:39:55;;;;;;;25.10;7.60;;;;;;;3.93;100.00;99912.68;220793;1269;139411;-89
2024/01/22 13:44:56;;;;;;;16.20;7.50;;;;;;;3.94;100.00;99907.19;221693;1267;96710;-91
2024/01/22 13:50:01;;;;;;;18.20;7.80;;;;;;;3.95;100.00;99889.26;220756;1269;139948;-91
2024/01/22 13:55:03;;;;;;;19.60;7.90;;;;;;;3.98;100.00;99886.00;221535;1264;138494;-90
2024/01/22 14:00:06;;;;;;;17.50;8.80;;;;;;;4.01;100.00;99884.55;221270;1267;139521;-87
2024/01/22 14:05:07;;;;;;;18.90;8.40;;;;;;;4.05;100.00;99881.70;221128;1264;138143;-91
2024/01/22 14:10:13;;;;;;;16.40;7.60;;;;;;;4.07;100.00;99881.98;220907;1267;139536;-93
2024/01/22 14:15:16;;;;;;;16.30;7.40;;;;;;;4.12;100.00;99882.12;221361;1264;138520;-89
2024/01/22 14:20:17;;;;;;;18.40;7.60;;;;;;;4.14;100.00;99874.23;220983;1264;138723;-93
2024/01/22 14:25:20;;;;;;;19.30;9.60;;;;;;;4.16;100.00;99872.56;221268;1267;138136;-89
2024/01/22 14:30:20;;;;;;;17.90;7.30;;;;;;;4.15;100.00;99869.29;220886;1264;139622;-92
2024/01/22 14:35:21;;;;;;;16.80;8.50;;;;;;;4.14;100.00;99863.52;221615;1267;138203;-89
2024/01/22 14:40:21;;;;;;;19.50;9.10;;;;;;;4.15;100.00;99854.42;220766;1264;139608;-90
2024/01/22 14:45:22;;;;;;;18.30;8.30;;;;;;;4.20;100.00;99848.02;221588;1264;138579;-90
2024/01/22 14:50:22;;;;;;;20.30;9.10;;;;;;;4.23;100.00;99844.45;220807;1264;139084;-93
2024/01/22 14:55:23;;;;;;;16.90;7.40;;;;;;;4.27;100.00;99839.66;221555;1264;138126;-91
2024/01/22 15:00:26;;;;;;;19.10;7.90;;;;;;;4.36;100.00;99839.73;220933;1267;140867;-93
2024/01/22 15:05:26;;;;;;;17.10;7.10;;;;;;;4.41;100.00;99838.23;221220;1266;139630;-90
2024/01/22 15:10:27;;;;;;;16.80;7.30;;;;;;;4.49;100.00;99843.82;220660;1264;139954;-92
2024/01/22 15:15:28;;;;;;;14.90;7.40;;;;;;;4.59;100.00;99843.77;220949;1264;138404;-88
2024/01/22 15:20:28;;;;;;;19.50;8.00;;;;;;;4.66;100.00;99845.26;221364;1264;138828;-91
2024/01/22 15:25:29;;;;;;;16.40;6.80;;;;;;;4.75;100.00;99848.85;222122;1264;138111;-90
2024/01/22 15:30:30;;;;;;;15.10;7.80;;;;;;;4.82;100.00;99852.83;221107;1264;139662;-89
2024/01/22 15:35:31;;;;;;;17.00;8.00;;;;;;;4.94;100.00;99845.25;221515;1264;138566;-88
2024/01/22 15:40:32;;;;;;;15.00;7.60;;;;;;;5.02;100.00;99846.22;221214;1264;138937;-86
2024/01/22 15:45:32;;;;;;;16.80;8.00;;;;;;;5.05;100.00;99845.61;222217;1267;139068;-86
2024/01/22 15:50:33;;;;;;;16.60;7.20;;;;;;;5.07;100.00;99843.30;221064;1264;139486;-86
2024/01/22 15:55:33;;;;;;;17.60;7.80;;;;;;;5.11;100.00;99837.34;221150;1264;136965;-85
2024/01/22 16:00:33;;;;;;;17.90;7.90;;;;;;;5.16;100.00;99830.59;220678;1264;139113;-91
2024/01/22 16:05:34;;;;;;;19.30;8.40;;;;;;;5.20;100.00;99829.44;221299;1266;138218;-87
2024/01/22 16:10:35;;;;;;;18.60;8.30;;;;;;;5.23;100.00;99830.11;220776;1264;143544;-85
2024/01/22 16:15:35;;;;;;;17.30;8.00;;;;;;;5.26;100.00;99829.26;221231;1264;139410;-88
2024/01/22 16:20:36;;;;;;;19.40;7.70;;;;;;;5.29;100.00;99824.64;220765;1264;138993;-91
2024/01/22 16:25:36;;;;;;;15.90;7.90;;;;;;;5.33;100.00;99811.55;221047;1264;138640;-87
2024/01/22 16:30:40;;;;;;;21.50;10.20;;;;;;;5.38;100.00;99807.61;221323;1265;139467;-90
2024/01/22 16:35:40;;;;;;;20.10;9.00;;;;;;;5.42;100.00;99809.89;221655;1264;137607;-90
2024/01/22 16:40:40;;;;;;;20.80;9.60;;;;;;;5.46;100.00;99805.91;220686;1267;140663;-87
2024/01/22 16:45:41;;;;;;;21.90;10.20;;;;;;;5.47;100.00;99804.61;221255;1264;138135;-86
2024/01/22 16:50:41;;;;;;;23.20;10.70;;;;;;;5.49;100.00;99803.80;220914;1264;139953;-90
2024/01/22 16:55:41;;;;;;;21.60;9.70;;;;;;;5.48;100.00;99794.83;221485;1264;138896;-87
2024/01/22 17:00:42;;;;;;;21.20;9.90;;;;;;;5.50;100.00;99793.68;220579;1264;139554;-86
2024/01/22 17:05:44;;;;;;;19.30;9.30;;;;;;;5.54;100.00;99795.79;221391;1265;139090;-87
2024/01/22 17:10:44;;;;;;;21.20;10.30;;;;;;;5.53;100.00;99796.30;220970;1264;139394;-88
2024/01/22 17:15:45;;;;;;;21.00;10.70;;;;;;;5.55;100.00;99786.55;221319;1264;138412;-89
2024/01/22 17:20:45;;;;;;;25.00;10.10;;;;;;;5.58;100.00;99790.98;220676;1264;140142;-87
2024/01/22 17:25:46;;;;;;;21.50;9.70;;;;;;;5.58;100.00;99792.36;221351;1267;138341;-86
2024/01/22 17:30:46;;;;;;;22.20;9.70;;;;;;;5.59;100.00;99783.25;220686;1267;139777;-87
2024/01/22 17:35:46;;;;;;;18.90;9.90;;;;;;;5.59;100.00;99792.55;221409;1267;138102;-86
2024/01/22 17:40:47;;;;;;;25.00;10.10;;;;;;;5.61;100.00;99792.73;220942;1264;138694;-88
2024/01/22 17:45:47;;;;;;;21.60;11.00;;;;;;;5.62;100.00;99796.02;221362;1264;138590;-88
2024/01/22 17:50:48;;;;;;;25.70;11.90;;;;;;;5.63;100.00;99799.88;220846;1264;140019;-87
2024/01/22 17:55:48;;;;;;;23.40;10.60;;;;;;;5.64;100.00;99794.84;221045;1264;138835;-87
2024/01/22 18:00:49;;;;;;;29.30;12.50;;;;;;;5.64;100.00;99805.27;220602;1264;139467;-89
2024/01/22 18:05:49;;;;;;;21.50;11.50;;;;;;;5.63;100.00;99810.86;221097;1265;138314;-87
2024/01/22 18:10:50;;;;;;;23.40;11.60;;;;;;;5.62;100.00;99812.27;220494;1264;139925;-86
2024/01/22 18:15:50;;;;;;;23.20;10.30;;;;;;;5.61;100.00;99808.95;221237;1264;138243;-89
2024/01/22 18:20:50;;;;;;;26.60;12.30;;;;;;;5.60;100.00;99802.23;221046;1264;139882;-88
2024/01/22 18:25:51;;;;;;;24.50;11.50;;;;;;;5.58;100.00;99794.48;221156;1264;138276;-87
2024/01/22 18:30:51;;;;;;;26.60;12.50;;;;;;;5.56;100.00;99791.55;220482;1265;139546;-92
2024/01/22 18:35:52;;;;;;;24.40;12.20;;;;;;;5.51;100.00;99788.96;221234;1264;139125;-86
2024/01/22 18:40:53;;;;;;;23.00;12.10;;;;;;;5.52;100.00;99795.13;220809;1263;139669;-88
2024/01/22 18:45:53;;;;;;;26.20;12.40;;;;;;;5.50;100.00;99803.34;221249;1264;138927;-85
2024/01/22 18:50:53;;;;;;;23.20;12.30;;;;;;;5.45;100.00;99795.54;220748;1264;139917;-85
2024/01/22 18:55:54;;;;;;;26.90;12.70;;;;;;;5.42;100.00;99798.17;221319;1264;138644;-87
2024/01/22 19:00:55;;;;;;;29.80;13.10;;;;;;;5.38;100.00;99805.10;220843;1264;140261;-87
2024/01/22 19:06:01;;;;;;;28.90;13.30;;;;;;;5.35;100.00;99806.77;221280;1264;138392;-89
2024/01/22 19:11:02;;;;;;;24.30;12.80;;;;;;;5.32;100.00;99813.72;220708;1267;139518;-92
2024/01/22 19:16:03;;;;;;;27.10;13.90;;;;;;;5.31;100.00;99823.59;221255;1266;139991;-90
2024/01/22 19:21:03;;;;;;;25.00;12.60;;;;;;;5.29;100.00;99832.13;220892;1266;139700;-87
2024/01/22 19:26:03;;;;;;;25.70;13.40;;;;;;;5.30;100.00;99839.09;221258;1267;138928;-90
2024/01/22 19:31:04;;;;;;;27.40;11.20;;;;;;;5.31;100.00;99841.60;220499;1267;140259;-88
2024/01/22 19:36:05;;;;;;;26.00;11.00;;;;;;;5.35;100.00;99843.80;221240;1264;138357;-93
2024/01/22 19:41:06;;;;;;;23.90;11.30;;;;;;;5.42;100.00;99859.32;220596;1264;142222;-88
2024/01/22 19:46:06;;;;;;;23.60;10.20;;;;;;;5.50;100.00;99863.38;221073;1264;139079;-92
2024/01/22 19:51:07;;;;;;;25.40;12.10;;;;;;;5.57;100.00;99854.88;220760;1264;139891;-87
2024/01/22 19:56:07;;;;;;;19.30;10.00;;;;;;;5.61;100.00;99854.20;221282;1264;96495;-89
2024/01/22 20:01:07;;;;;;;20.90;10.20;;;;;;;5.69;100.00;99856.71;220630;1265;140165;-87
2024/01/22 20:06:08;;;;;;;23.90;11.20;;;;;;;5.76;100.00;99866.05;221177;1264;138349;-90
2024/01/22 20:11:08;;;;;;;24.80;11.00;;;;;;;5.78;100.00;99879.45;220724;1264;138813;-88
2024/01/22 20:16:08;;;;;;;28.50;13.20;;;;;;;5.80;100.00;99885.28;221140;1264;138312;-87
2024/01/22 20:21:09;;;;;;;27.20;12.50;;;;;;;5.81;100.00;99902.24;220578;1264;139404;-88
2024/01/22 20:26:10;;;;;;;29.70;14.00;;;;;;;5.81;100.00;99918.15;221222;1264;96593;-88
2024/01/22 20:31:10;;;;;;;28.50;14.80;;;;;;;5.81;100.00;99930.02;220706;1267;141397;-87
2024/01/22 20:36:11;;;;;;;26.50;12.30;;;;;;;5.82;100.00;99956.33;221183;1266;138577;-87
2024/01/22 20:41:12;;;;;;;23.70;11.70;;;;;;;5.82;100.00;99969.90;220685;1265;139622;-85
2024/01/22 20:46:12;;;;;;;22.30;11.00;;;;;;;5.84;100.00;99977.98;221178;1264;138637;-88
2024/01/22 20:51:13;;;;;;;27.40;11.60;;;;;;;5.86;100.00;99984.27;220648;1263;139102;-85
2024/01/22 20:56:15;;;;;;;16.60;8.30;;;;;;;5.88;100.00;99984.77;221550;1264;96586;-89
2024/01/22 21:01:15;;;;;;;15.80;7.60;;;;;;;5.92;100.00;99996.11;220793;1266;139418;-84
2024/01/22 21:06:16;;;;;;;15.10;7.80;;;;;;;6.00;100.00;100001.83;221319;1264;138112;-84
2024/01/22 21:11:16;;;;;;;13.60;6.60;;;;;;;6.09;100.00;100001.09;221554;1263;139808;-87
2024/01/22 21:16:20;;;;;;;13.50;5.70;;;;;;;6.16;100.00;100012.32;221458;1264;139469;-91
2024/01/22 21:21:22;;;;;;;11.70;5.50;;;;;;;6.21;100.00;100016.50;220734;1264;139331;-88
2024/01/22 21:26:23;;;;;;;13.40;5.40;;;;;;;6.24;100.00;100030.61;221396;1264;105767;-89
2024/01/22 21:31:23;;;;;;;12.60;5.90;;;;;;;6.27;100.00;100051.44;220521;1265;140110;-89
2024/01/22 21:36:24;;;;;;;12.70;5.60;;;;;;;6.23;100.00;100050.02;221231;1264;138307;-90
2024/01/22 21:41:25;;;;;;;11.30;4.60;;;;;;;6.21;100.00;100054.69;220829;1264;139902;-90
2024/01/22 21:46:25;;;;;;;13.00;6.10;;;;;;;6.18;100.00;100054.84;221474;1264;138252;-89
2024/01/22 21:51:25;;;;;;;11.70;5.00;;;;;;;6.12;100.00;100065.02;220729;1264;139812;-89
2024/01/22 21:56:28;;;;;;;11.50;4.80;;;;;;;6.07;100.00;100078.93;221208;1264;97052;-89
2024/01/22 22:01:32;;;;;;;11.00;4.60;;;;;;;6.02;100.00;100092.70;220558;1265;139481;-93
2024/01/22 22:06:33;;;;;;;12.50;4.80;;;;;;;5.96;100.00;100096.63;221271;1264;139322;-90
2024/01/22 22:11:33;;;;;;;12.40;5.30;;;;;;;5.91;100.00;100105.54;220666;1265;140253;-91
2024/01/22 22:16:34;;;;;;;10.80;4.40;;;;;;;5.85;100.00;100117.58;221063;1267;138308;-89
2024/01/22 22:21:49;;;;;;;11.30;3.70;;;;;;;5.79;100.00;100119.06;220774;1267;140058;-89
2024/01/22 22:26:49;;;;;;;18.80;4.70;;;;;;;5.75;100.00;100133.52;220976;1264;262811;-90
2024/01/22 22:31:50;;;;;;;12.00;5.20;;;;;;;5.71;100.00;100142.86;221131;1264;139508;-89
2024/01/22 22:36:50;;;;;;;14.30;4.50;;;;;;;5.67;100.00;100140.80;221439;1266;138126;-90
2024/01/22 22:41:51;;;;;;;12.40;5.10;;;;;;;5.63;100.00;100133.68;220852;1264;139169;-90
2024/01/22 22:46:51;;;;;;;14.50;4.40;;;;;;;5.57;100.00;100140.56;221662;1266;138284;-90